createdAt,value
2019-02-15T00:00:24.312Z,1013.98
2019-02-15T00:01:24.348Z,1013.96
2019-02-15T00:02:24.383Z,1014.00
2019-02-15T00:03:24.424Z,1013.95
2019-02-15T00:04:24.452Z,1013.92
2019-02-15T00:05:24.494Z,1013.94
2019-02-15T00:06:24.522Z,1013.88
2019-02-15T00:07:24.558Z,1013.89
2019-02-15T00:08:24.601Z,1013.89
2019-02-15T00:09:24.630Z,1013.86
2019-02-15T00:10:24.663Z,1013.89
2019-02-15T00:11:24.702Z,1013.91
2019-02-15T00:12:24.732Z,1013.90
2019-02-15T00:13:24.766Z,1013.91
2019-02-15T00:14:24.801Z,1013.94
2019-02-15T00:15:24.838Z,1013.91
2019-02-15T00:16:25.322Z,1013.94
2019-02-15T00:17:24.908Z,1013.92
2019-02-15T00:18:24.942Z,1013.94
2019-02-15T00:19:25.027Z,1013.89
2019-02-15T00:20:25.015Z,1013.87
2019-02-15T00:21:25.049Z,1013.90
2019-02-15T00:22:25.085Z,1013.89
2019-02-15T00:23:25.120Z,1013.87
2019-02-15T00:24:25.152Z,1013.86
2019-02-15T00:25:25.190Z,1013.85
2019-02-15T00:26:25.222Z,1013.89
2019-02-15T00:27:25.257Z,1013.86
2019-02-15T00:28:25.291Z,1013.83
2019-02-15T00:29:25.331Z,1013.89
2019-02-15T00:30:25.368Z,1013.88
2019-02-15T00:31:25.396Z,1013.87
2019-02-15T00:32:25.440Z,1013.90
2019-02-15T00:33:25.470Z,1013.92
2019-02-15T00:34:25.515Z,1013.91
2019-02-15T00:35:25.534Z,1013.90
2019-02-15T00:36:25.570Z,1013.86
2019-02-15T00:37:25.613Z,1013.86
2019-02-15T00:38:25.639Z,1013.86
2019-02-15T00:39:25.684Z,1013.88
2019-02-15T00:40:25.711Z,1013.86
2019-02-15T00:41:25.745Z,1013.86
2019-02-15T00:42:25.779Z,1013.87
2019-02-15T00:43:25.815Z,1013.87
2019-02-15T00:44:25.856Z,1013.87
2019-02-15T00:45:25.893Z,1013.88
2019-02-15T00:46:25.917Z,1013.89
2019-02-15T00:47:25.953Z,1013.85
2019-02-15T00:48:25.990Z,1013.85
2019-02-15T00:49:26.025Z,1013.86
2019-02-15T00:50:26.057Z,1013.86
2019-02-15T00:51:26.093Z,1013.87
2019-02-15T00:52:26.126Z,1013.90
2019-02-15T00:53:26.163Z,1013.88
2019-02-15T00:54:26.197Z,1013.89
2019-02-15T00:55:26.232Z,1013.88
2019-02-15T00:56:26.267Z,1013.89
2019-02-15T00:57:26.302Z,1013.86
2019-02-15T00:58:26.345Z,1013.87
2019-02-15T00:59:26.371Z,1013.81
2019-02-15T01:00:26.407Z,1013.81
2019-02-15T01:01:26.443Z,1013.85
2019-02-15T01:02:26.481Z,1013.86
2019-02-15T01:03:26.510Z,1013.80
2019-02-15T01:04:26.547Z,1013.85
2019-02-15T01:05:26.580Z,1013.80
2019-02-15T01:06:26.613Z,1013.82
2019-02-15T01:07:26.648Z,1013.80
2019-02-15T01:08:26.686Z,1013.81
2019-02-15T01:09:26.718Z,1013.81
2019-02-15T01:10:26.754Z,1013.81
2019-02-15T01:11:26.796Z,1013.82
2019-02-15T01:12:26.825Z,1013.84
2019-02-15T01:13:31.116Z,1013.81
2019-02-15T01:14:26.899Z,1013.77
2019-02-15T01:15:26.931Z,1013.81
2019-02-15T01:16:26.963Z,1013.83
2019-02-15T01:17:27.013Z,1013.76
2019-02-15T01:18:27.033Z,1013.78
2019-02-15T01:19:27.067Z,1013.79
2019-02-15T01:20:27.102Z,1013.80
2019-02-15T01:21:27.140Z,1013.80
2019-02-15T01:22:27.172Z,1013.83
2019-02-15T01:23:27.215Z,1013.80
2019-02-15T01:24:27.242Z,1013.83
2019-02-15T01:25:27.276Z,1013.78
2019-02-15T01:26:27.318Z,1013.81
2019-02-15T01:27:27.345Z,1013.79
2019-02-15T01:28:27.381Z,1013.81
2019-02-15T01:29:27.426Z,1013.80
2019-02-15T01:30:27.452Z,1013.75
2019-02-15T01:31:27.485Z,1013.76
2019-02-15T01:32:27.522Z,1013.79
2019-02-15T01:33:27.561Z,1013.77
2019-02-15T01:34:27.587Z,1013.81
2019-02-15T01:35:27.622Z,1013.79
2019-02-15T01:36:27.659Z,1013.78
2019-02-15T01:37:27.693Z,1013.79
2019-02-15T01:38:27.726Z,1013.78
2019-02-15T01:39:27.760Z,1013.78
2019-02-15T01:40:27.796Z,1013.74
2019-02-15T01:41:27.837Z,1013.73
2019-02-15T01:42:27.865Z,1013.72
2019-02-15T01:43:27.898Z,1013.69
2019-02-15T01:44:27.935Z,1013.75
2019-02-15T01:45:27.970Z,1013.73
2019-02-15T01:46:28.006Z,1013.76
2019-02-15T01:47:28.041Z,1013.77
2019-02-15T01:48:28.074Z,1013.77
2019-02-15T01:49:28.109Z,1013.77
2019-02-15T01:50:28.145Z,1013.76
2019-02-15T01:51:28.177Z,1013.77
2019-02-15T01:52:28.212Z,1013.77
2019-02-15T01:53:28.245Z,1013.78
2019-02-15T01:54:28.335Z,1013.80
2019-02-15T01:55:28.325Z,1013.77
2019-02-15T01:56:28.353Z,1013.76
2019-02-15T01:57:28.385Z,1013.74
2019-02-15T01:58:28.419Z,1013.76
2019-02-15T01:59:28.455Z,1013.73
2019-02-15T02:00:28.489Z,1013.69
2019-02-15T02:01:28.525Z,1013.73
2019-02-15T02:02:28.559Z,1013.72
2019-02-15T02:03:28.593Z,1013.73
2019-02-15T02:04:28.632Z,1013.68
2019-02-15T02:05:28.663Z,1013.67
2019-02-15T02:06:28.699Z,1013.67
2019-02-15T02:07:28.734Z,1013.66
2019-02-15T02:08:28.766Z,1013.66
2019-02-15T02:09:28.803Z,1013.67
2019-02-15T02:10:28.837Z,1013.64
2019-02-15T02:11:28.874Z,1013.62
2019-02-15T02:12:28.909Z,1013.64
2019-02-15T02:13:28.949Z,1013.65
2019-02-15T02:14:28.974Z,1013.64
2019-02-15T02:15:29.017Z,1013.57
2019-02-15T02:16:29.046Z,1013.59
2019-02-15T02:17:29.079Z,1013.52
2019-02-15T02:18:29.112Z,1013.50
2019-02-15T02:19:29.147Z,1013.50
2019-02-15T02:20:29.182Z,1013.47
2019-02-15T02:21:29.218Z,1013.44
2019-02-15T02:22:29.252Z,1013.42
2019-02-15T02:23:29.285Z,1013.47
2019-02-15T02:24:29.323Z,1013.47
2019-02-15T02:25:29.359Z,1013.50
2019-02-15T02:26:29.397Z,1013.48
2019-02-15T02:27:29.434Z,1013.45
2019-02-15T02:28:29.461Z,1013.47
2019-02-15T02:29:29.496Z,1013.43
2019-02-15T02:30:29.533Z,1013.50
2019-02-15T02:31:29.565Z,1013.48
2019-02-15T02:32:29.670Z,1013.50
2019-02-15T02:33:29.636Z,1013.52
2019-02-15T02:34:29.668Z,1013.50
2019-02-15T02:35:29.714Z,1013.44
2019-02-15T02:36:29.739Z,1013.47
2019-02-15T02:37:29.773Z,1013.44
2019-02-15T02:38:29.807Z,1013.45
2019-02-15T02:39:29.842Z,1013.42
2019-02-15T02:40:29.878Z,1013.45
2019-02-15T02:41:29.918Z,1013.46
2019-02-15T02:42:29.947Z,1013.46
2019-02-15T02:43:29.980Z,1013.45
2019-02-15T02:44:30.017Z,1013.42
2019-02-15T02:45:30.101Z,1013.44
2019-02-15T02:46:30.085Z,1013.48
2019-02-15T02:47:30.119Z,1013.45
2019-02-15T02:48:30.162Z,1013.50
2019-02-15T02:49:30.201Z,1013.44
2019-02-15T02:50:30.222Z,1013.47
2019-02-15T02:51:30.268Z,1013.47
2019-02-15T02:52:30.293Z,1013.50
2019-02-15T02:53:30.328Z,1013.49
2019-02-15T02:54:30.359Z,1013.47
2019-02-15T02:55:30.406Z,1013.46
2019-02-15T02:56:30.437Z,1013.50
2019-02-15T02:57:30.468Z,1013.50
2019-02-15T02:58:30.499Z,1013.53
2019-02-15T02:59:30.532Z,1013.48
2019-02-15T03:00:33.654Z,1013.49
2019-02-15T03:01:30.611Z,1013.44
2019-02-15T03:02:30.636Z,1013.47
2019-02-15T03:03:30.668Z,1013.46
2019-02-15T03:04:30.716Z,1013.46
2019-02-15T03:05:30.742Z,1013.47
2019-02-15T03:06:30.774Z,1013.44
2019-02-15T03:07:30.808Z,1013.44
2019-02-15T03:08:30.843Z,1013.45
2019-02-15T03:09:30.878Z,1013.42
2019-02-15T03:10:30.910Z,1013.44
2019-02-15T03:11:30.946Z,1013.45
2019-02-15T03:12:30.988Z,1013.46
2019-02-15T03:13:31.017Z,1013.43
2019-02-15T03:14:31.055Z,1013.43
2019-02-15T03:15:31.083Z,1013.41
2019-02-15T03:16:31.121Z,1013.44
2019-02-15T03:17:31.155Z,1013.40
2019-02-15T03:18:31.198Z,1013.39
2019-02-15T03:19:31.222Z,1013.36
2019-02-15T03:20:31.775Z,1013.36
2019-02-15T03:21:31.292Z,1013.39
2019-02-15T03:22:31.329Z,1013.37
2019-02-15T03:23:31.362Z,1013.40
2019-02-15T03:24:31.394Z,1013.38
2019-02-15T03:25:31.430Z,1013.39
2019-02-15T03:26:31.463Z,1013.40
2019-02-15T03:27:31.498Z,1013.43
2019-02-15T03:28:31.542Z,1013.44
2019-02-15T03:29:31.566Z,1013.43
2019-02-15T03:30:31.663Z,1013.42
2019-02-15T03:31:31.657Z,1013.41
2019-02-15T03:32:31.671Z,1013.40
2019-02-15T03:33:31.713Z,1013.39
2019-02-15T03:34:31.746Z,1013.43
2019-02-15T03:35:31.774Z,1013.38
2019-02-15T03:36:31.809Z,1013.39
2019-02-15T03:37:31.844Z,1013.42
2019-02-15T03:38:31.878Z,1013.45
2019-02-15T03:39:31.914Z,1013.41
2019-02-15T03:40:31.956Z,1013.40
2019-02-15T03:41:31.993Z,1013.36
2019-02-15T03:42:32.022Z,1013.32
2019-02-15T03:43:32.049Z,1013.32
2019-02-15T03:44:32.086Z,1013.32
2019-02-15T03:45:32.143Z,1013.33
2019-02-15T03:46:32.157Z,1013.35
2019-02-15T03:47:32.187Z,1013.34
2019-02-15T03:48:32.225Z,1013.36
2019-02-15T03:49:32.258Z,1013.35
2019-02-15T03:50:32.290Z,1013.35
2019-02-15T03:51:32.338Z,1013.37
2019-02-15T03:52:32.363Z,1013.40
2019-02-15T03:53:32.394Z,1013.33
2019-02-15T03:54:32.436Z,1013.35
2019-02-15T03:55:32.463Z,1013.39
2019-02-15T03:56:32.514Z,1013.36
2019-02-15T03:57:32.542Z,1013.37
2019-02-15T03:58:32.567Z,1013.36
2019-02-15T03:59:32.600Z,1013.33
2019-02-15T04:00:32.634Z,1013.33
2019-02-15T04:01:32.672Z,1013.34
2019-02-15T04:02:32.703Z,1013.36
2019-02-15T04:03:32.740Z,1013.34
2019-02-15T04:04:32.781Z,1013.35
2019-02-15T04:05:32.809Z,1013.30
2019-02-15T04:06:32.846Z,1013.34
2019-02-15T04:07:32.876Z,1013.33
2019-02-15T04:08:32.910Z,1013.37
2019-02-15T04:09:32.947Z,1013.31
2019-02-15T04:10:32.977Z,1013.36
2019-02-15T04:11:33.017Z,1013.35
2019-02-15T04:12:33.046Z,1013.34
2019-02-15T04:13:33.084Z,1013.37
2019-02-15T04:14:33.575Z,1013.38
2019-02-15T04:15:33.155Z,1013.38
2019-02-15T04:16:33.185Z,1013.38
2019-02-15T04:17:33.222Z,1013.35
2019-02-15T04:18:33.355Z,1013.41
2019-02-15T04:19:33.289Z,1013.33
2019-02-15T04:20:33.323Z,1013.30
2019-02-15T04:21:33.357Z,1013.33
2019-02-15T04:22:33.389Z,1013.36
2019-02-15T04:23:33.429Z,1013.34
2019-02-15T04:24:33.466Z,1013.34
2019-02-15T04:25:33.523Z,1013.34
2019-02-15T04:26:33.535Z,1013.35
2019-02-15T04:27:33.565Z,1013.40
2019-02-15T04:28:33.600Z,1013.39
2019-02-15T04:29:33.635Z,1013.38
2019-02-15T04:30:33.666Z,1013.39
2019-02-15T04:31:33.705Z,1013.42
2019-02-15T04:32:33.737Z,1013.41
2019-02-15T04:33:33.768Z,1013.42
2019-02-15T04:34:33.803Z,1013.38
2019-02-15T04:35:33.837Z,1013.40
2019-02-15T04:36:33.871Z,1013.40
2019-02-15T04:37:33.904Z,1013.39
2019-02-15T04:38:33.941Z,1013.34
2019-02-15T04:39:33.981Z,1013.38
2019-02-15T04:40:34.008Z,1013.37
2019-02-15T04:41:34.045Z,1013.32
2019-02-15T04:42:34.079Z,1013.37
2019-02-15T04:43:34.119Z,1013.38
2019-02-15T04:44:42.598Z,1013.36
2019-02-15T04:45:34.189Z,1013.33
2019-02-15T04:46:34.222Z,1013.35
2019-02-15T04:47:34.251Z,1013.32
2019-02-15T04:48:34.301Z,1013.34
2019-02-15T04:49:34.317Z,1013.36
2019-02-15T04:50:34.352Z,1013.34
2019-02-15T04:51:34.384Z,1013.35
2019-02-15T04:52:34.421Z,1013.41
2019-02-15T04:53:34.455Z,1013.35
2019-02-15T04:54:34.488Z,1013.34
2019-02-15T04:55:34.525Z,1013.36
2019-02-15T04:56:34.556Z,1013.36
2019-02-15T04:57:34.595Z,1013.37
2019-02-15T04:58:34.625Z,1013.38
2019-02-15T04:59:34.663Z,1013.36
2019-02-15T05:00:34.695Z,1013.40
2019-02-15T05:01:34.730Z,1013.35
2019-02-15T05:02:34.762Z,1013.38
2019-02-15T05:03:34.795Z,1013.37
2019-02-15T05:04:34.829Z,1013.36
2019-02-15T05:05:34.873Z,1013.37
2019-02-15T05:06:34.899Z,1013.39
2019-02-15T05:07:34.941Z,1013.38
2019-02-15T05:08:34.966Z,1013.40
2019-02-15T05:09:35.007Z,1013.39
2019-02-15T05:10:35.035Z,1013.41
2019-02-15T05:11:35.068Z,1013.40
2019-02-15T05:12:35.104Z,1013.36
2019-02-15T05:13:35.140Z,1013.39
2019-02-15T05:14:35.173Z,1013.42
2019-02-15T05:15:35.213Z,1013.39
2019-02-15T05:16:35.242Z,1013.40
2019-02-15T05:17:35.282Z,1013.38
2019-02-15T05:18:35.310Z,1013.35
2019-02-15T05:19:35.344Z,1013.39
2019-02-15T05:20:35.378Z,1013.37
2019-02-15T05:21:35.417Z,1013.36
2019-02-15T05:22:35.444Z,1013.36
2019-02-15T05:23:35.482Z,1013.35
2019-02-15T05:24:35.516Z,1013.30
2019-02-15T05:25:35.552Z,1013.31
2019-02-15T05:26:35.584Z,1013.27
2019-02-15T05:27:35.619Z,1013.32
2019-02-15T05:28:35.657Z,1013.29
2019-02-15T05:29:35.697Z,1013.36
2019-02-15T05:30:35.720Z,1013.29
2019-02-15T05:31:35.792Z,1013.33
2019-02-15T05:32:35.791Z,1013.35
2019-02-15T05:33:35.829Z,1013.37
2019-02-15T05:34:35.860Z,1013.40
2019-02-15T05:35:35.893Z,1013.36
2019-02-15T05:36:35.928Z,1013.33
2019-02-15T05:37:35.963Z,1013.34
2019-02-15T05:38:35.998Z,1013.38
2019-02-15T05:39:36.030Z,1013.37
2019-02-15T05:40:36.066Z,1013.34
2019-02-15T05:41:36.108Z,1013.36
2019-02-15T05:42:36.137Z,1013.37
2019-02-15T05:43:36.173Z,1013.36
2019-02-15T05:44:36.208Z,1013.34
2019-02-15T05:45:36.237Z,1013.36
2019-02-15T05:46:36.268Z,1013.38
2019-02-15T05:47:36.312Z,1013.37
2019-02-15T05:48:36.340Z,1013.34
2019-02-15T05:49:36.376Z,1013.39
2019-02-15T05:50:36.406Z,1013.33
2019-02-15T05:51:36.441Z,1013.35
2019-02-15T05:52:36.481Z,1013.34
2019-02-15T05:53:36.520Z,1013.34
2019-02-15T05:54:36.559Z,1013.36
2019-02-15T05:55:36.579Z,1013.35
2019-02-15T05:56:36.618Z,1013.37
2019-02-15T05:57:36.648Z,1013.36
2019-02-15T05:58:36.684Z,1013.34
2019-02-15T05:59:36.716Z,1013.36
2019-02-15T06:00:37.434Z,1013.40
2019-02-15T06:01:36.791Z,1013.40
2019-02-15T06:02:36.819Z,1013.39
2019-02-15T06:03:36.851Z,1013.42
2019-02-15T06:04:36.891Z,1013.45
2019-02-15T06:05:36.920Z,1013.41
2019-02-15T06:06:36.957Z,1013.41
2019-02-15T06:07:36.988Z,1013.38
2019-02-15T06:08:37.024Z,1013.38
2019-02-15T06:09:37.067Z,1013.37
2019-02-15T06:10:37.090Z,1013.33
2019-02-15T06:11:37.127Z,1013.37
2019-02-15T06:12:37.161Z,1013.36
2019-02-15T06:13:37.218Z,1013.32
2019-02-15T06:14:37.228Z,1013.38
2019-02-15T06:15:37.270Z,1013.36
2019-02-15T06:16:37.296Z,1013.37
2019-02-15T06:17:37.335Z,1013.37
2019-02-15T06:18:37.374Z,1013.41
2019-02-15T06:19:37.437Z,1013.38
2019-02-15T06:20:37.431Z,1013.39
2019-02-15T06:21:37.472Z,1013.36
2019-02-15T06:22:37.503Z,1013.39
2019-02-15T06:23:37.534Z,1013.37
2019-02-15T06:24:37.569Z,1013.40
2019-02-15T06:25:37.603Z,1013.41
2019-02-15T06:26:37.636Z,1013.44
2019-02-15T06:27:37.687Z,1013.43
2019-02-15T06:28:37.706Z,1013.47
2019-02-15T06:29:37.739Z,1013.45
2019-02-15T06:30:37.772Z,1013.46
2019-02-15T06:31:37.809Z,1013.51
2019-02-15T06:32:37.842Z,1013.49
2019-02-15T06:33:37.877Z,1013.49
2019-02-15T06:34:37.910Z,1013.52
2019-02-15T06:35:38.002Z,1013.51
2019-02-15T06:36:37.978Z,1013.55
2019-02-15T06:37:38.013Z,1013.58
2019-02-15T06:38:38.069Z,1013.59
2019-02-15T06:39:38.096Z,1013.53
2019-02-15T06:40:38.113Z,1013.57
2019-02-15T06:41:38.152Z,1013.53
2019-02-15T06:42:38.185Z,1013.54
2019-02-15T06:43:38.218Z,1013.58
2019-02-15T06:44:38.261Z,1013.57
2019-02-15T06:45:38.290Z,1013.54
2019-02-15T06:46:38.320Z,1013.57
2019-02-15T06:47:38.354Z,1013.56
2019-02-15T06:48:38.389Z,1013.59
2019-02-15T06:49:38.436Z,1013.59
2019-02-15T06:50:38.462Z,1013.62
2019-02-15T06:51:38.497Z,1013.59
2019-02-15T06:52:38.526Z,1013.63
2019-02-15T06:53:38.567Z,1013.63
2019-02-15T06:54:38.596Z,1013.66
2019-02-15T06:55:38.627Z,1013.65
2019-02-15T06:56:38.662Z,1013.68
2019-02-15T06:57:38.695Z,1013.68
2019-02-15T06:58:45.520Z,1013.69
2019-02-15T06:59:38.763Z,1013.67
2019-02-15T07:00:38.798Z,1013.68
2019-02-15T07:01:38.832Z,1013.74
2019-02-15T07:02:38.867Z,1013.70
2019-02-15T07:03:40.208Z,1013.70
2019-02-15T07:04:38.934Z,1013.71
2019-02-15T07:05:38.970Z,1013.69
2019-02-15T07:06:39.002Z,1013.67
2019-02-15T07:07:39.037Z,1013.69
2019-02-15T07:08:39.076Z,1013.69
2019-02-15T07:09:39.106Z,1013.66
2019-02-15T07:10:39.141Z,1013.72
2019-02-15T07:11:39.182Z,1013.68
2019-02-15T07:12:39.208Z,1013.75
2019-02-15T07:13:39.259Z,1013.73
2019-02-15T07:14:39.278Z,1013.74
2019-02-15T07:15:39.310Z,1013.72
2019-02-15T07:16:39.347Z,1013.71
2019-02-15T07:17:39.380Z,1013.71
2019-02-15T07:18:39.415Z,1013.72
2019-02-15T07:19:39.449Z,1013.75
2019-02-15T07:20:39.483Z,1013.76
2019-02-15T07:21:39.517Z,1013.76
2019-02-15T07:22:39.568Z,1013.79
2019-02-15T07:23:39.590Z,1013.79
2019-02-15T07:24:39.620Z,1013.80
2019-02-15T07:25:39.654Z,1013.76
2019-02-15T07:26:39.687Z,1013.80
2019-02-15T07:27:39.722Z,1013.78
2019-02-15T07:28:39.760Z,1013.79
2019-02-15T07:29:39.789Z,1013.79
2019-02-15T07:30:39.823Z,1013.80
2019-02-15T07:31:39.859Z,1013.80
2019-02-15T07:32:39.892Z,1013.79
2019-02-15T07:33:39.932Z,1013.78
2019-02-15T07:34:39.960Z,1013.77
2019-02-15T07:35:40.012Z,1013.78
2019-02-15T07:36:40.030Z,1013.83
2019-02-15T07:37:40.065Z,1013.78
2019-02-15T07:38:40.104Z,1013.79
2019-02-15T07:39:40.132Z,1013.83
2019-02-15T07:40:40.165Z,1013.81
2019-02-15T07:41:40.201Z,1013.82
2019-02-15T07:42:40.279Z,1013.82
2019-02-15T07:43:40.268Z,1013.77
2019-02-15T07:44:40.302Z,1013.79
2019-02-15T07:45:42.885Z,1013.79
2019-02-15T07:46:40.394Z,1013.79
2019-02-15T07:47:40.408Z,1013.79
2019-02-15T07:48:40.452Z,1013.79
2019-02-15T07:49:40.474Z,1013.79
2019-02-15T07:50:40.512Z,1013.81
2019-02-15T07:51:40.543Z,1013.82
2019-02-15T07:52:40.579Z,1013.81
2019-02-15T07:53:40.613Z,1013.83
2019-02-15T07:54:40.655Z,1013.80
2019-02-15T07:55:40.687Z,1013.80
2019-02-15T07:56:40.715Z,1013.77
2019-02-15T07:57:40.748Z,1013.78
2019-02-15T07:58:40.784Z,1013.75
2019-02-15T07:59:40.818Z,1013.73
2019-02-15T08:00:40.860Z,1013.73
2019-02-15T08:01:40.886Z,1013.70
2019-02-15T08:02:40.922Z,1013.69
2019-02-15T08:03:40.957Z,1013.75
2019-02-15T08:04:40.988Z,1013.73
2019-02-15T08:05:41.027Z,1013.71
2019-02-15T08:06:41.060Z,1013.70
2019-02-15T08:07:41.150Z,1013.73
2019-02-15T08:08:41.128Z,1013.70
2019-02-15T08:09:41.163Z,1013.72
2019-02-15T08:10:41.197Z,1013.72
2019-02-15T08:11:41.232Z,1013.72
2019-02-15T08:12:41.280Z,1013.71
2019-02-15T08:13:41.301Z,1013.71
2019-02-15T08:14:41.335Z,1013.67
2019-02-15T08:15:41.371Z,1013.69
2019-02-15T08:16:41.407Z,1013.67
2019-02-15T08:17:41.441Z,1013.65
2019-02-15T08:18:41.474Z,1013.65
2019-02-15T08:19:41.509Z,1013.70
2019-02-15T08:20:41.544Z,1013.68
2019-02-15T08:21:41.581Z,1013.71
2019-02-15T08:22:41.615Z,1013.70
2019-02-15T08:23:41.649Z,1013.68
2019-02-15T08:24:41.691Z,1013.72
2019-02-15T08:25:41.727Z,1013.68
2019-02-15T08:26:41.753Z,1013.68
2019-02-15T08:27:41.809Z,1013.72
2019-02-15T08:28:41.824Z,1013.68
2019-02-15T08:29:41.858Z,1013.68
2019-02-15T08:30:41.891Z,1013.70
2019-02-15T08:31:41.930Z,1013.69
2019-02-15T08:32:41.972Z,1013.67
2019-02-15T08:33:41.996Z,1013.65
2019-02-15T08:34:42.033Z,1013.66
2019-02-15T08:35:42.075Z,1013.65
2019-02-15T08:36:42.102Z,1013.65
2019-02-15T08:37:42.141Z,1013.63
2019-02-15T08:38:42.170Z,1013.66
2019-02-15T08:39:42.207Z,1013.62
2019-02-15T08:40:42.241Z,1013.65
2019-02-15T08:41:42.276Z,1013.65
2019-02-15T08:42:42.312Z,1013.63
2019-02-15T08:43:42.356Z,1013.66
2019-02-15T08:44:42.381Z,1013.65
2019-02-15T08:45:42.416Z,1013.63
2019-02-15T08:46:42.452Z,1013.66
2019-02-15T08:47:42.488Z,1013.67
2019-02-15T08:48:46.204Z,1013.68
2019-02-15T08:49:42.556Z,1013.66
2019-02-15T08:50:42.591Z,1013.67
2019-02-15T08:51:42.627Z,1013.64
2019-02-15T08:52:42.685Z,1013.68
2019-02-15T08:53:42.698Z,1013.62
2019-02-15T08:54:42.732Z,1013.64
2019-02-15T08:55:42.767Z,1013.64
2019-02-15T08:56:42.804Z,1013.61
2019-02-15T08:57:42.847Z,1013.62
2019-02-15T08:58:42.873Z,1013.60
2019-02-15T08:59:42.909Z,1013.61
2019-02-15T09:00:42.945Z,1013.61
2019-02-15T09:01:42.980Z,1013.65
2019-02-15T09:02:43.066Z,1013.65
2019-02-15T09:03:43.059Z,1013.64
2019-02-15T09:04:43.085Z,1013.62
2019-02-15T09:05:43.130Z,1013.66
2019-02-15T09:06:43.165Z,1013.65
2019-02-15T09:07:43.192Z,1013.62
2019-02-15T09:08:43.236Z,1013.61
2019-02-15T09:09:43.265Z,1013.60
2019-02-15T09:10:43.307Z,1013.56
2019-02-15T09:11:43.335Z,1013.54
2019-02-15T09:12:43.373Z,1013.53
2019-02-15T09:13:43.406Z,1013.57
2019-02-15T09:14:43.447Z,1013.58
2019-02-15T09:15:43.477Z,1013.54
2019-02-15T09:16:43.512Z,1013.57
2019-02-15T09:17:43.547Z,1013.54
2019-02-15T09:18:43.585Z,1013.58
2019-02-15T09:19:43.639Z,1013.55
2019-02-15T09:20:43.655Z,1013.56
2019-02-15T09:21:43.690Z,1013.58
2019-02-15T09:22:43.725Z,1013.57
2019-02-15T09:23:43.771Z,1013.58
2019-02-15T09:24:43.799Z,1013.59
2019-02-15T09:25:43.834Z,1013.57
2019-02-15T09:26:43.870Z,1013.60
2019-02-15T09:27:43.909Z,1013.57
2019-02-15T09:28:43.945Z,1013.58
2019-02-15T09:29:43.978Z,1013.58
2019-02-15T09:30:44.012Z,1013.56
2019-02-15T09:31:44.051Z,1013.52
2019-02-15T09:32:44.085Z,1013.51
2019-02-15T09:33:44.128Z,1013.52
2019-02-15T09:34:44.158Z,1013.52
2019-02-15T09:35:44.220Z,1013.48
2019-02-15T09:36:44.236Z,1013.47
2019-02-15T09:37:44.279Z,1013.47
2019-02-15T09:38:44.302Z,1013.42
2019-02-15T09:39:44.342Z,1013.44
2019-02-15T09:40:44.481Z,1013.42
2019-02-15T09:41:44.409Z,1013.40
2019-02-15T09:42:44.446Z,1013.43
2019-02-15T09:43:44.483Z,1013.42
2019-02-15T09:44:44.520Z,1013.40
2019-02-15T09:45:44.572Z,1013.42
2019-02-15T09:46:44.596Z,1013.39
2019-02-15T09:47:44.625Z,1013.39
2019-02-15T09:48:44.662Z,1013.38
2019-02-15T09:49:45.219Z,1013.34
2019-02-15T09:50:44.742Z,1013.35
2019-02-15T09:51:44.787Z,1013.33
2019-02-15T09:52:44.805Z,1013.32
2019-02-15T09:53:44.842Z,1013.32
2019-02-15T09:54:44.889Z,1013.34
2019-02-15T09:55:44.914Z,1013.27
2019-02-15T09:56:44.954Z,1013.32
2019-02-15T09:57:44.986Z,1013.31
2019-02-15T09:58:45.022Z,1013.29
2019-02-15T09:59:45.060Z,1013.30
2019-02-15T10:00:45.099Z,1013.27
2019-02-15T10:01:45.136Z,1013.27
2019-02-15T10:02:45.174Z,1013.24
2019-02-15T10:03:45.215Z,1013.24
2019-02-15T10:04:45.247Z,1013.21
2019-02-15T10:05:45.280Z,1013.19
2019-02-15T10:06:45.313Z,1013.19
2019-02-15T10:07:45.350Z,1013.20
2019-02-15T10:08:45.397Z,1013.21
2019-02-15T10:09:45.425Z,1013.22
2019-02-15T10:10:45.465Z,1013.17
2019-02-15T10:11:45.506Z,1013.21
2019-02-15T10:12:45.541Z,1013.18
2019-02-15T10:13:45.570Z,1013.24
2019-02-15T10:14:45.606Z,1013.22
2019-02-15T10:15:45.645Z,1013.19
2019-02-15T10:16:45.683Z,1013.19
2019-02-15T10:17:45.751Z,1013.22
2019-02-15T10:18:45.754Z,1013.20
2019-02-15T10:19:45.793Z,1013.22
2019-02-15T10:20:45.827Z,1013.21
2019-02-15T10:21:45.868Z,1013.23
2019-02-15T10:22:45.900Z,1013.26
2019-02-15T10:23:45.943Z,1013.24
2019-02-15T10:24:45.973Z,1013.20
2019-02-15T10:25:46.012Z,1013.18
2019-02-15T10:26:46.053Z,1013.17
2019-02-15T10:27:46.091Z,1013.17
2019-02-15T10:28:46.120Z,1013.19
2019-02-15T10:29:46.166Z,1013.21
2019-02-15T10:30:46.196Z,1013.21
2019-02-15T10:31:46.267Z,1013.20
2019-02-15T10:32:46.272Z,1013.19
2019-02-15T10:33:46.306Z,1013.17
2019-02-15T10:34:46.346Z,1013.15
2019-02-15T10:35:46.378Z,1013.17
2019-02-15T10:36:46.417Z,1013.14
2019-02-15T10:37:46.468Z,1013.17
2019-02-15T10:38:46.491Z,1013.11
2019-02-15T10:39:46.527Z,1013.09
2019-02-15T10:40:46.566Z,1013.07
2019-02-15T10:41:46.606Z,1013.09
2019-02-15T10:42:46.639Z,1013.05
2019-02-15T10:43:46.676Z,1013.01
2019-02-15T10:44:46.722Z,1013.02
2019-02-15T10:45:46.752Z,1012.97
2019-02-15T10:46:46.787Z,1012.95
2019-02-15T10:47:46.825Z,1012.92
2019-02-15T10:48:46.862Z,1012.91
2019-02-15T10:49:46.991Z,1012.89
2019-02-15T10:50:46.943Z,1012.89
2019-02-15T10:51:46.981Z,1012.89
2019-02-15T10:52:47.010Z,1012.90
2019-02-15T10:53:47.058Z,1012.85
2019-02-15T10:54:47.084Z,1012.87
2019-02-15T10:55:47.122Z,1012.87
2019-02-15T10:56:47.166Z,1012.80
2019-02-15T10:57:47.213Z,1012.81
2019-02-15T10:58:47.233Z,1012.82
2019-02-15T10:59:47.271Z,1012.78
2019-02-15T11:00:47.310Z,1012.75
2019-02-15T11:01:47.346Z,1012.76
2019-02-15T11:02:47.382Z,1012.72
2019-02-15T11:03:47.421Z,1012.71
2019-02-15T11:04:47.459Z,1012.68
2019-02-15T11:05:47.497Z,1012.69
2019-02-15T11:06:47.533Z,1012.68
2019-02-15T11:07:47.571Z,1012.67
2019-02-15T11:08:47.608Z,1012.66
2019-02-15T11:09:47.645Z,1012.63
2019-02-15T11:10:47.684Z,1012.63
2019-02-15T11:11:47.722Z,1012.62
2019-02-15T11:12:47.760Z,1012.54
2019-02-15T11:13:47.800Z,1012.56
2019-02-15T11:14:48.088Z,1012.57
2019-02-15T11:15:48.172Z,1012.53
2019-02-15T11:16:48.004Z,1012.48
2019-02-15T11:17:48.139Z,1012.50
2019-02-15T11:18:48.071Z,1012.50
2019-02-15T11:19:48.116Z,1012.49
2019-02-15T11:20:48.081Z,1012.50
2019-02-15T11:21:48.104Z,1012.48
2019-02-15T11:22:48.147Z,1012.42
2019-02-15T11:23:48.183Z,1012.48
2019-02-15T11:24:48.312Z,1012.47
2019-02-15T11:25:48.250Z,1012.44
2019-02-15T11:26:48.297Z,1012.40
2019-02-15T11:27:48.325Z,1012.37
2019-02-15T11:28:48.365Z,1012.39
2019-02-15T11:29:48.421Z,1012.37
2019-02-15T11:30:48.447Z,1012.37
2019-02-15T11:31:48.482Z,1012.38
2019-02-15T11:32:48.516Z,1012.36
2019-02-15T11:33:48.559Z,1012.39
2019-02-15T11:34:48.592Z,1012.36
2019-02-15T11:35:48.630Z,1012.34
2019-02-15T11:36:48.677Z,1012.30
2019-02-15T11:37:48.707Z,1012.30
2019-02-15T11:38:48.746Z,1012.29
2019-02-15T11:39:48.793Z,1012.27
2019-02-15T11:40:48.829Z,1012.26
2019-02-15T11:41:48.859Z,1012.25
2019-02-15T11:42:48.905Z,1012.24
2019-02-15T11:43:48.936Z,1012.21
2019-02-15T11:44:48.974Z,1012.19
2019-02-15T11:45:49.012Z,1012.20
2019-02-15T11:46:56.549Z,1012.19
2019-02-15T11:47:49.119Z,1012.15
2019-02-15T11:48:49.137Z,1012.15
2019-02-15T11:49:49.167Z,1012.15
2019-02-15T11:50:49.206Z,1012.14
2019-02-15T11:51:49.243Z,1012.13
2019-02-15T11:52:49.282Z,1012.11
2019-02-15T11:53:49.322Z,1012.12
2019-02-15T11:54:49.372Z,1012.11
2019-02-15T11:55:49.404Z,1012.08
2019-02-15T11:56:49.436Z,1012.10
2019-02-15T11:57:49.473Z,1012.05
2019-02-15T11:58:49.513Z,1012.02
2019-02-15T11:59:49.552Z,1012.04
2019-02-15T12:00:49.589Z,1012.00
2019-02-15T12:01:49.636Z,1012.00
2019-02-15T12:02:49.666Z,1012.03
2019-02-15T12:03:49.713Z,1012.01
2019-02-15T12:04:49.749Z,1011.98
2019-02-15T12:05:49.785Z,1011.97